KFYV/FYV METAR and TAF weather

Enter ICAO airport designator
Station Type Date Time Source
KFYV METAR 2021/04/17 01:16 UTC NOAA

KFYV 170116Z 00000KT 10SM FEW009 BKN036 OVC042 09/08 A2994 RMK AO2 T00890078


Station Type Date Time Source
KFYV Decoded METAR 2021/04/17 01:16 UTC NOAA

FAYETTEVILLE DRAKE FIELD, AR, United States (KFYV) 36-00N 94-10W 379M
Apr 16, 2021 - 09:16 PM EDT / 2021.04.17 0116 UTC
Wind: Calm:0
Visibility: 10 mile(s):0
Sky conditions: overcast
Temperature: 48.0 F (8.9 C)
Dew Point: 46.0 F (7.8 C)
Relative Humidity: 92%
Pressure (altimeter): 29.94 in. Hg (1013 hPa)
ob: KFYV 170116Z 00000KT 10SM FEW009 BKN036 OVC042 09/08 A2994 RMK AO2 T00890078
cycle: 1

Station Type Date Time Source
KFYV TAF 2021/04/16 22:18 UTC NOAA

TAF
AMD KFYV 162215Z 1622/1718 VRB05KT 4SM BR BKN015
TEMPO 1622/1624 2SM -RA SCT006 BKN012
FM170400 04005KT 4SM BR VCSH OVC005
FM170800 33007KT 4SM BR OVC004
FM171500 32006KT 6SM BR BKN007

Example: see airport list